createdAt,value
2018-09-23T00:03:37.685Z,17.04
2018-09-23T00:07:41.283Z,16.98
2018-09-23T00:11:44.867Z,16.92
2018-09-23T00:15:48.314Z,16.87
2018-09-23T00:19:51.809Z,16.84
2018-09-23T00:23:55.608Z,16.81
2018-09-23T00:27:59.478Z,16.81
2018-09-23T00:32:03.012Z,16.82
2018-09-23T00:36:06.571Z,16.83
2018-09-23T00:40:10.082Z,16.85
2018-09-23T00:44:13.592Z,16.87
2018-09-23T00:48:17.150Z,16.89
2018-09-23T00:52:20.647Z,16.90
2018-09-23T00:56:24.257Z,16.86
2018-09-23T01:00:27.758Z,16.83
2018-09-23T01:04:31.286Z,16.87
2018-09-23T01:08:34.740Z,16.89
2018-09-23T01:12:39.234Z,16.89
2018-09-23T01:16:43.094Z,16.87
2018-09-23T01:20:46.840Z,16.87
2018-09-23T01:24:50.448Z,16.86
2018-09-23T01:28:54.070Z,16.85
2018-09-23T01:32:57.515Z,16.82
2018-09-23T01:37:02.063Z,16.81
2018-09-23T01:41:05.955Z,16.76
2018-09-23T01:45:09.441Z,16.76
2018-09-23T01:49:12.905Z,16.76
2018-09-23T01:53:16.379Z,16.74
2018-09-23T01:57:20.136Z,16.72
2018-09-23T02:01:23.679Z,16.68
2018-09-23T02:05:27.339Z,16.66
2018-09-23T02:09:30.907Z,16.67
2018-09-23T02:13:34.761Z,16.65
2018-09-23T02:17:38.409Z,16.64
2018-09-23T02:21:42.258Z,16.61
2018-09-23T02:25:45.680Z,16.59
2018-09-23T02:29:49.228Z,16.57
2018-09-23T02:33:52.958Z,16.56
2018-09-23T02:37:56.489Z,16.55
2018-09-23T02:42:00.055Z,16.54
2018-09-23T02:46:04.970Z,16.54
2018-09-23T02:50:08.489Z,16.54
2018-09-23T02:54:11.942Z,16.55
2018-09-23T02:58:15.483Z,16.52
2018-09-23T03:02:19.094Z,16.49
2018-09-23T03:06:22.807Z,16.47
2018-09-23T03:10:26.418Z,16.49
2018-09-23T03:14:29.929Z,16.48
2018-09-23T03:18:33.540Z,16.47
2018-09-23T03:22:39.212Z,16.45
2018-09-23T03:26:42.822Z,16.41
2018-09-23T03:30:46.272Z,16.40
2018-09-23T03:34:49.832Z,16.40
2018-09-23T03:38:54.418Z,16.37
2018-09-23T03:42:57.959Z,16.33
2018-09-23T03:47:01.630Z,16.32
2018-09-23T03:51:05.206Z,16.32
2018-09-23T03:55:08.754Z,16.32
2018-09-23T03:59:12.218Z,16.34
2018-09-23T04:03:16.011Z,16.36
2018-09-23T04:07:19.470Z,16.31
2018-09-23T04:11:22.926Z,16.25
2018-09-23T04:15:26.403Z,16.21
2018-09-23T04:19:29.918Z,16.14
2018-09-23T04:23:33.439Z,16.11
2018-09-23T04:27:36.875Z,16.10
2018-09-23T04:31:40.395Z,16.04
2018-09-23T04:35:44.187Z,16.04
2018-09-23T04:39:47.650Z,16.00
2018-09-23T04:43:51.171Z,16.00
2018-09-23T04:47:54.693Z,16.01
2018-09-23T04:51:58.310Z,16.00
2018-09-23T04:56:02.062Z,16.00
2018-09-23T05:00:05.597Z,15.98
2018-09-23T05:04:09.061Z,16.00
2018-09-23T05:08:12.474Z,15.99
2018-09-23T05:12:15.969Z,16.00
2018-09-23T05:16:20.185Z,16.00
2018-09-23T05:20:23.889Z,15.98
2018-09-23T05:24:27.526Z,15.98
2018-09-23T05:28:30.982Z,15.94
2018-09-23T05:32:34.465Z,15.90
2018-09-23T05:36:38.053Z,15.86
2018-09-23T05:40:41.878Z,15.86
2018-09-23T05:44:45.357Z,15.86
2018-09-23T05:48:48.921Z,15.84
2018-09-23T05:52:52.703Z,15.86
2018-09-23T05:56:56.638Z,15.88
2018-09-23T06:01:00.181Z,15.91
2018-09-23T06:05:03.711Z,15.93
2018-09-23T06:09:07.916Z,15.94
2018-09-23T06:13:11.705Z,15.95
2018-09-23T06:17:15.303Z,15.97
2018-09-23T06:21:18.797Z,15.99
2018-09-23T06:25:22.478Z,15.99
2018-09-23T06:29:25.877Z,16.02
2018-09-23T06:33:29.413Z,16.07
2018-09-23T06:37:33.098Z,16.07
2018-09-23T06:41:36.587Z,16.08
2018-09-23T06:45:40.173Z,16.06
2018-09-23T06:49:43.700Z,16.07
2018-09-23T06:53:47.227Z,16.07
2018-09-23T06:57:50.765Z,16.11
2018-09-23T07:01:54.302Z,16.10
2018-09-23T07:05:57.959Z,16.11
2018-09-23T07:10:01.386Z,16.13
2018-09-23T07:14:05.017Z,16.15
2018-09-23T07:18:08.633Z,16.21
2018-09-23T07:22:12.027Z,16.28
2018-09-23T07:26:15.530Z,16.30
2018-09-23T07:30:18.976Z,16.32
2018-09-23T07:34:22.550Z,16.33
2018-09-23T07:38:26.101Z,16.34
2018-09-23T07:42:29.875Z,16.38
2018-09-23T07:46:33.434Z,16.40
2018-09-23T07:50:37.042Z,16.42
2018-09-23T07:54:40.605Z,16.45
2018-09-23T07:58:44.064Z,16.46
2018-09-23T08:02:47.683Z,16.49
2018-09-23T08:06:51.114Z,16.48
2018-09-23T08:10:54.981Z,16.48
2018-09-23T08:14:58.921Z,16.48
2018-09-23T08:19:03.694Z,16.50
2018-09-23T08:23:07.568Z,16.54
2018-09-23T08:27:11.169Z,16.61
2018-09-23T08:31:14.741Z,16.69
2018-09-23T08:35:18.198Z,16.71
2018-09-23T08:39:21.783Z,16.77
2018-09-23T08:43:25.478Z,16.82
2018-09-23T08:47:29.221Z,16.94
2018-09-23T08:51:32.679Z,17.01
2018-09-23T08:55:36.278Z,17.12
2018-09-23T08:59:39.898Z,17.20
2018-09-23T09:03:43.489Z,17.28
2018-09-23T09:07:46.932Z,17.34
2018-09-23T09:11:50.507Z,17.43
2018-09-23T09:15:54.302Z,17.54
2018-09-23T09:19:57.852Z,17.60
2018-09-23T09:24:01.346Z,17.73
2018-09-23T09:28:04.876Z,17.85
2018-09-23T09:32:08.345Z,17.99
2018-09-23T09:36:11.917Z,18.14
2018-09-23T09:40:15.418Z,18.20
2018-09-23T09:44:18.972Z,18.31
2018-09-23T09:48:22.615Z,18.43
2018-09-23T09:52:26.190Z,18.58
2018-09-23T09:56:30.065Z,18.70
2018-09-23T10:00:34.521Z,18.79
2018-09-23T10:04:38.111Z,18.88
2018-09-23T10:08:41.689Z,18.92
2018-09-23T10:12:45.385Z,18.98
2018-09-23T10:16:48.925Z,19.12
2018-09-23T10:20:52.561Z,19.25
2018-09-23T10:24:57.288Z,19.31
2018-09-23T10:29:00.749Z,19.35
2018-09-23T10:33:04.264Z,19.37
2018-09-23T10:37:07.819Z,19.33
2018-09-23T10:41:11.590Z,19.35
2018-09-23T10:45:15.009Z,19.38
2018-09-23T10:49:18.674Z,19.45
2018-09-23T10:53:22.142Z,19.49
2018-09-23T10:57:25.639Z,19.53
2018-09-23T11:01:29.221Z,19.59
2018-09-23T11:05:32.698Z,19.61
2018-09-23T11:09:36.338Z,19.52
2018-09-23T11:13:40.014Z,19.38
2018-09-23T11:17:43.540Z,19.29
2018-09-23T11:21:47.213Z,19.16
2018-09-23T11:25:50.785Z,18.99
2018-09-23T11:29:54.539Z,18.88
2018-09-23T11:33:58.245Z,18.81
2018-09-23T11:38:03.136Z,18.78
2018-09-23T11:42:06.685Z,18.72
2018-09-23T11:46:10.430Z,18.59
2018-09-23T11:50:14.078Z,18.49
2018-09-23T11:54:17.701Z,18.42
2018-09-23T11:58:21.213Z,18.36
2018-09-23T12:02:25.058Z,18.29
2018-09-23T12:06:28.870Z,18.16
2018-09-23T12:10:32.526Z,18.01
2018-09-23T12:14:35.972Z,17.88
2018-09-23T12:18:39.467Z,17.79
2018-09-23T12:22:42.949Z,17.64
2018-09-23T12:26:46.526Z,17.54
2018-09-23T12:30:49.982Z,17.47
2018-09-23T12:34:53.618Z,17.47
2018-09-23T12:38:57.356Z,17.50
2018-09-23T12:43:00.852Z,17.50
2018-09-23T12:47:04.278Z,17.44
2018-09-23T12:51:07.765Z,17.48
2018-09-23T12:55:11.325Z,17.56
2018-09-23T12:59:14.911Z,17.70
2018-09-23T13:03:18.530Z,17.78
2018-09-23T13:07:22.162Z,17.79
2018-09-23T13:11:25.745Z,17.79
2018-09-23T13:15:29.249Z,17.77
2018-09-23T13:19:33.204Z,17.82
2018-09-23T13:23:36.641Z,17.88
2018-09-23T13:27:40.140Z,17.91
2018-09-23T13:31:43.589Z,17.93
2018-09-23T13:35:47.180Z,17.91
2018-09-23T13:39:50.832Z,17.87
2018-09-23T13:43:54.323Z,17.88
2018-09-23T13:47:57.779Z,17.87
2018-09-23T13:52:03.773Z,17.91
2018-09-23T13:56:07.935Z,17.92
2018-09-23T14:00:11.373Z,17.92
2018-09-23T14:04:14.996Z,17.94
2018-09-23T14:08:18.437Z,17.96
2018-09-23T14:12:22.125Z,17.98
2018-09-23T14:16:25.680Z,17.99
2018-09-23T14:20:29.114Z,18.02
2018-09-23T14:24:32.606Z,18.05
2018-09-23T14:28:37.414Z,18.16
2018-09-23T14:32:40.909Z,18.25
2018-09-23T14:36:44.352Z,18.33
2018-09-23T14:40:53.349Z,18.36
2018-09-23T14:44:57.001Z,18.43
2018-09-23T14:49:00.514Z,18.51
2018-09-23T14:53:04.420Z,18.55
2018-09-23T14:57:07.970Z,18.61
2018-09-23T15:01:11.590Z,18.65
2018-09-23T15:05:15.062Z,18.68
2018-09-23T15:09:20.572Z,18.73
2018-09-23T15:13:24.173Z,18.81
2018-09-23T15:17:27.687Z,18.89
2018-09-23T15:21:31.247Z,18.97
2018-09-23T15:25:34.787Z,19.04
2018-09-23T15:29:38.332Z,19.12
2018-09-23T15:33:41.813Z,19.19
2018-09-23T15:37:45.601Z,19.25
2018-09-23T15:41:49.160Z,19.29
2018-09-23T15:45:52.643Z,19.30
2018-09-23T15:49:56.293Z,19.29
2018-09-23T15:53:59.922Z,19.26
2018-09-23T15:58:03.489Z,19.25
2018-09-23T16:02:07.226Z,19.21
2018-09-23T16:06:10.798Z,19.17
2018-09-23T16:10:14.354Z,19.14
2018-09-23T16:14:17.799Z,19.11
2018-09-23T16:18:21.503Z,19.09
2018-09-23T16:22:25.025Z,19.08
2018-09-23T16:26:28.486Z,19.05
2018-09-23T16:30:32.005Z,19.02
2018-09-23T16:34:35.546Z,18.98
2018-09-23T16:38:39.095Z,18.95
2018-09-23T16:42:43.981Z,18.92
2018-09-23T16:46:48.152Z,18.91
2018-09-23T16:50:51.793Z,18.89
2018-09-23T16:54:55.372Z,18.84
2018-09-23T16:58:59.125Z,18.85
2018-09-23T17:03:02.894Z,18.81
2018-09-23T17:07:06.391Z,18.80
2018-09-23T17:11:09.864Z,18.76
2018-09-23T17:15:13.376Z,18.73
2018-09-23T17:19:16.938Z,18.69
2018-09-23T17:23:20.391Z,18.66
2018-09-23T17:27:23.844Z,18.64
2018-09-23T17:31:27.413Z,18.62
2018-09-23T17:35:30.841Z,18.62
2018-09-23T17:39:34.392Z,18.61
2018-09-23T17:43:38.261Z,18.59
2018-09-23T17:47:41.761Z,18.60
2018-09-23T17:51:45.612Z,18.59
2018-09-23T17:55:49.510Z,18.60
2018-09-23T17:59:53.095Z,18.59
2018-09-23T18:03:56.590Z,18.56
2018-09-23T18:08:00.058Z,18.53
2018-09-23T18:12:03.693Z,18.52
2018-09-23T18:16:07.149Z,18.49
2018-09-23T18:20:10.673Z,18.48
2018-09-23T18:24:14.349Z,18.49
2018-09-23T18:28:17.847Z,18.50
2018-09-23T18:32:21.872Z,18.48
2018-09-23T18:36:25.373Z,18.47
2018-09-23T18:40:28.856Z,18.46
2018-09-23T18:44:32.481Z,18.41
2018-09-23T18:48:36.029Z,18.40
2018-09-23T18:52:39.428Z,18.35
2018-09-23T18:56:43.161Z,18.33
2018-09-23T19:00:46.633Z,18.31
2018-09-23T19:04:50.065Z,18.25
2018-09-23T19:08:53.619Z,18.24
2018-09-23T19:13:02.317Z,18.24
2018-09-23T19:17:14.682Z,18.19
2018-09-23T19:21:18.265Z,18.15
2018-09-23T19:25:21.793Z,18.10
2018-09-23T19:29:26.333Z,18.05
2018-09-23T19:33:29.941Z,18.03
2018-09-23T19:37:33.673Z,18.01
2018-09-23T19:41:37.098Z,17.96
2018-09-23T19:45:41.764Z,17.96
2018-09-23T19:49:45.286Z,18.02
2018-09-23T19:53:48.845Z,18.21
2018-09-23T19:57:52.358Z,18.16
2018-09-23T20:01:55.859Z,18.19
2018-09-23T20:05:59.434Z,18.21
2018-09-23T20:10:03.274Z,18.22
2018-09-23T20:18:45.519Z,18.17
2018-09-23T20:22:49.254Z,18.06
2018-09-23T20:26:53.663Z,18.01
2018-09-23T20:30:59.630Z,17.93
2018-09-23T20:35:04.299Z,17.89
2018-09-23T20:39:09.101Z,17.83
2018-09-23T20:43:12.801Z,17.81
2018-09-23T20:47:16.372Z,17.82
2018-09-23T20:51:20.043Z,17.84
2018-09-23T20:55:23.540Z,17.86
2018-09-23T20:59:27.329Z,17.82
2018-09-23T21:03:31.018Z,17.66
2018-09-23T21:07:34.682Z,17.50
2018-09-23T21:11:38.454Z,17.40
2018-09-23T21:15:42.021Z,17.34
2018-09-23T21:19:45.465Z,17.29
2018-09-23T21:23:49.231Z,17.28
2018-09-23T21:27:52.851Z,17.25
2018-09-23T21:31:56.580Z,17.24
2018-09-23T21:36:00.206Z,17.25
2018-09-23T21:40:03.845Z,17.27
2018-09-23T21:44:07.326Z,17.30
2018-09-23T21:48:10.900Z,17.33
2018-09-23T21:52:14.671Z,17.35
2018-09-23T21:56:19.394Z,17.36
2018-09-23T22:00:23.058Z,17.36
2018-09-23T22:04:26.673Z,17.38
2018-09-23T22:08:30.389Z,17.40
2018-09-23T22:12:33.987Z,17.42
2018-09-23T22:16:37.681Z,17.46
2018-09-23T22:20:41.485Z,17.52
2018-09-23T22:24:44.988Z,17.54
2018-09-23T22:28:48.622Z,17.58
2018-09-23T22:32:52.523Z,17.62
2018-09-23T22:36:56.086Z,17.60
2018-09-23T22:41:00.752Z,17.64
2018-09-23T22:45:04.837Z,17.67
2018-09-23T22:49:08.399Z,17.72
2018-09-23T22:53:12.417Z,17.71
2018-09-23T22:57:16.178Z,17.70
2018-09-23T23:01:19.712Z,17.67
2018-09-23T23:05:23.388Z,17.67
2018-09-23T23:09:27.142Z,17.65
2018-09-23T23:13:31.834Z,17.63
2018-09-23T23:17:36.458Z,17.56
2018-09-23T23:21:40.071Z,17.47
2018-09-23T23:25:43.570Z,17.40
2018-09-23T23:29:47.229Z,17.33
2018-09-23T23:33:50.757Z,17.27
2018-09-23T23:37:54.340Z,17.26
2018-09-23T23:41:57.861Z,17.21
2018-09-23T23:46:01.477Z,17.18
2018-09-23T23:50:05.583Z,17.16
2018-09-23T23:54:09.464Z,17.15
2018-09-23T23:58:13.026Z,17.17
